Time;durP1;ratioP1;P1;durP2;ratioP2;P2;SDS_P1;SDS_P2;PMS_P1;PMS_P2;Temp;Humidity;BMP_temperature;BMP_pressure;BME280_temperature;BME280_humidity;BME280_pressure;Samples;Min_cycle;Max_cycle;Signal;HPM_P1;HPM_P2
2024/01/21 00:02:08;;;;;;;14.47;7.30;;;-0.10;1.00;;;;;;5043154;28;20275;-61
2024/01/21 00:04:37;;;;;;;14.20;7.83;;;0.00;1.00;;;;;;5045949;28;20219;-61
2024/01/21 00:07:05;;;;;;;13.43;7.83;;;0.10;1.00;;;;;;5045325;28;20248;-61
2024/01/21 00:09:33;;;;;;;13.40;7.07;;;0.10;1.00;;;;;;5041432;28;20221;-61
2024/01/21 00:12:02;;;;;;;17.47;8.93;;;0.20;1.00;;;;;;5037036;28;20221;-61
2024/01/21 00:14:30;;;;;;;12.60;7.87;;;0.20;1.00;;;;;;5040549;28;20722;-61
2024/01/21 00:16:58;;;;;;;12.50;8.00;;;0.20;1.00;;;;;;5044866;28;20541;-61
2024/01/21 00:19:28;;;;;;;12.70;7.27;;;0.20;1.00;;;;;;5044217;28;20216;-60
2024/01/21 00:21:56;;;;;;;13.27;8.00;;;0.20;1.00;;;;;;5043419;28;20233;-61
2024/01/21 00:24:24;;;;;;;14.93;8.00;;;0.20;1.00;;;;;;5045729;28;20227;-61
2024/01/21 00:26:53;;;;;;;13.30;7.40;;;0.10;1.00;;;;;;5044394;28;20260;-61
2024/01/21 00:29:21;;;;;;;12.13;7.77;;;0.20;1.00;;;;;;5045379;28;20208;-60
2024/01/21 00:31:49;;;;;;;11.70;7.40;;;0.20;1.00;;;;;;5042875;28;20217;-61
2024/01/21 00:34:17;;;;;;;15.50;8.10;;;0.30;1.00;;;;;;5038963;28;20244;-61
2024/01/21 00:36:47;;;;;;;12.20;7.50;;;0.20;1.00;;;;;;5044481;28;20283;-61
2024/01/21 00:39:16;;;;;;;15.53;8.10;;;0.30;1.00;;;;;;5041915;28;20290;-61
2024/01/21 00:41:44;;;;;;;14.07;8.23;;;0.30;1.00;;;;;;5045829;28;20751;-61
2024/01/21 00:44:28;;;;;;;14.43;7.80;;;0.40;1.00;;;;;;5041474;28;20544;-61
2024/01/21 00:46:56;;;;;;;12.33;8.17;;;0.50;1.00;;;;;;5045875;28;20191;-60
2024/01/21 00:49:25;;;;;;;17.17;8.33;;;0.50;1.00;;;;;;5040474;28;20878;-61
2024/01/21 00:51:54;;;;;;;14.50;7.77;;;0.50;1.00;;;;;;5039724;28;20617;-61
2024/01/21 00:54:23;;;;;;;12.63;7.80;;;0.50;1.00;;;;;;5044199;28;20224;-61
2024/01/21 00:56:52;;;;;;;14.30;7.47;;;0.60;1.00;;;;;;5044708;28;20586;-61
2024/01/21 00:59:20;;;;;;;15.23;8.10;;;0.50;1.00;;;;;;5046774;28;20188;-61
2024/01/21 01:01:48;;;;;;;16.33;8.03;;;0.50;1.00;;;;;;5043509;28;20189;-61
2024/01/21 01:04:16;;;;;;;13.30;7.67;;;0.50;1.00;;;;;;5041658;28;20311;-61
2024/01/21 01:06:45;;;;;;;13.60;8.10;;;0.60;1.00;;;;;;5042114;28;20233;-61
2024/01/21 01:09:15;;;;;;;15.47;8.03;;;0.70;1.00;;;;;;5042683;28;20224;-61
2024/01/21 01:11:43;;;;;;;10.47;7.30;;;0.70;1.00;;;;;;5041856;28;20221;-61
2024/01/21 01:14:11;;;;;;;12.17;8.03;;;0.70;1.00;;;;;;5045266;28;20196;-61
2024/01/21 01:16:40;;;;;;;11.97;7.73;;;0.70;1.00;;;;;;5043090;28;20196;-61
2024/01/21 01:19:09;;;;;;;11.20;7.23;;;0.70;1.00;;;;;;5041617;28;20213;-61
2024/01/21 01:21:37;;;;;;;12.13;7.73;;;0.70;1.00;;;;;;5040752;28;20811;-61
2024/01/21 01:24:06;;;;;;;12.87;7.73;;;0.70;1.00;;;;;;5041496;28;20213;-61
2024/01/21 01:26:36;;;;;;;14.23;8.00;;;0.80;1.00;;;;;;5039989;28;20220;-61
2024/01/21 01:29:04;;;;;;;12.83;7.57;;;0.70;1.00;;;;;;5043859;28;20210;-61
2024/01/21 01:31:32;;;;;;;14.93;8.20;;;0.80;1.00;;;;;;5042198;28;20220;-61
2024/01/21 01:34:01;;;;;;;12.77;7.90;;;0.80;1.00;;;;;;5046099;28;20706;-61
2024/01/21 01:36:29;;;;;;;13.17;7.97;;;0.80;1.00;;;;;;5042840;28;20224;-61
2024/01/21 01:38:57;;;;;;;11.13;7.30;;;0.80;1.00;;;;;;5049881;28;20816;-61
2024/01/21 01:41:25;;;;;;;14.47;8.57;;;0.90;1.00;;;;;;5047631;28;20699;-61
2024/01/21 01:43:55;;;;;;;17.07;8.67;;;0.90;1.00;;;;;;5048712;28;20254;-61
2024/01/21 01:46:24;;;;;;;15.40;8.60;;;0.90;1.00;;;;;;5048859;28;20777;-61
2024/01/21 01:48:52;;;;;;;14.87;7.87;;;0.90;1.00;;;;;;5042306;28;20217;-62
2024/01/21 01:51:21;;;;;;;13.57;8.03;;;0.90;1.00;;;;;;5049626;28;20242;-61
2024/01/21 01:53:49;;;;;;;12.97;7.83;;;0.80;1.00;;;;;;5042574;28;20272;-61
2024/01/21 01:56:17;;;;;;;12.20;7.30;;;0.90;1.00;;;;;;5046623;28;20199;-61
2024/01/21 01:58:49;;;;;;;12.93;7.93;;;0.80;1.00;;;;;;5050200;28;20211;-61
2024/01/21 02:01:19;;;;;;;13.33;8.10;;;0.90;1.00;;;;;;5048129;28;20224;-61
2024/01/21 02:03:47;;;;;;;13.77;7.73;;;0.90;1.00;;;;;;5044413;28;20233;-61
2024/01/21 02:06:17;;;;;;;13.50;8.20;;;0.90;1.00;;;;;;5048870;28;20564;-61
2024/01/21 02:08:45;;;;;;;13.10;8.13;;;0.90;1.00;;;;;;5044194;28;20691;-61
2024/01/21 02:11:13;;;;;;;14.43;8.20;;;0.90;99.90;;;;;;5049039;28;20216;-61
2024/01/21 02:13:41;;;;;;;13.33;7.73;;;0.90;1.00;;;;;;5048125;28;20240;-61
2024/01/21 02:16:09;;;;;;;11.83;7.07;;;0.90;1.00;;;;;;5045430;28;20216;-61
2024/01/21 02:18:41;;;;;;;12.33;7.33;;;1.00;99.90;;;;;;5049328;28;20208;-61
2024/01/21 02:21:09;;;;;;;10.07;7.20;;;1.00;99.90;;;;;;5044066;28;20217;-61
2024/01/21 02:23:39;;;;;;;10.23;6.73;;;0.90;99.90;;;;;;5048255;28;20223;-61
2024/01/21 02:26:08;;;;;;;12.23;7.27;;;0.90;99.90;;;;;;5045055;28;20256;-61
2024/01/21 02:28:36;;;;;;;11.60;6.70;;;0.90;99.90;;;;;;5047589;28;20662;-61
2024/01/21 02:31:04;;;;;;;10.07;6.70;;;0.90;99.90;;;;;;5046152;28;20585;-61
2024/01/21 02:33:32;;;;;;;7.97;6.00;;;0.90;99.90;;;;;;5049140;28;20216;-61
2024/01/21 02:36:01;;;;;;;12.43;7.30;;;0.90;99.90;;;;;;5046579;28;20255;-61
2024/01/21 02:38:30;;;;;;;12.17;6.97;;;0.90;99.90;;;;;;5046714;28;20315;-61
2024/01/21 02:41:00;;;;;;;11.47;6.67;;;0.90;99.90;;;;;;5042660;28;20700;-61
2024/01/21 02:43:28;;;;;;;10.13;6.30;;;0.90;99.90;;;;;;5043391;28;20251;-61
2024/01/21 02:45:56;;;;;;;9.53;6.30;;;1.00;99.90;;;;;;5044302;28;20221;-61
2024/01/21 02:48:24;;;;;;;11.67;6.43;;;1.10;63.70;;;;;;5045008;28;20227;-61
2024/01/21 02:50:53;;;;;;;10.87;6.97;;;1.10;99.90;;;;;;5043535;28;20726;-61
2024/01/21 02:53:21;;;;;;;11.43;6.77;;;1.10;99.90;;;;;;5046156;28;20210;-61
2024/01/21 02:55:49;;;;;;;9.83;6.30;;;1.20;99.90;;;;;;5049485;28;20207;-61
2024/01/21 02:58:19;;;;;;;10.93;6.40;;;1.20;80.70;;;;;;5048459;28;20224;-61
2024/01/21 03:00:47;;;;;;;8.97;6.70;;;1.20;65.60;;;;;;5044163;28;20319;-61
2024/01/21 03:03:16;;;;;;;10.67;6.30;;;1.20;99.90;;;;;;5042826;28;20303;-60
2024/01/21 03:05:45;;;;;;;8.57;6.40;;;1.20;89.10;;;;;;5041328;28;20652;-60
2024/01/21 03:08:15;;;;;;;9.33;6.10;;;1.30;96.50;;;;;;5049673;28;20193;-61
2024/01/21 03:10:43;;;;;;;9.80;6.60;;;1.30;1.00;;;;;;5044324;28;20220;-61
2024/01/21 03:13:11;;;;;;;9.47;5.83;;;1.40;1.00;;;;;;5047828;28;20575;-61
2024/01/21 03:15:41;;;;;;;9.87;6.63;;;1.40;1.00;;;;;;5043167;28;20225;-61
2024/01/21 03:18:09;;;;;;;9.20;6.47;;;1.40;1.00;;;;;;5044911;28;20766;-61
2024/01/21 03:20:40;;;;;;;10.03;6.07;;;1.40;1.00;;;;;;5049062;28;20212;-61
2024/01/21 03:23:08;;;;;;;8.20;6.07;;;1.40;1.00;;;;;;5047992;28;20196;-59
2024/01/21 03:25:36;;;;;;;7.70;6.30;;;1.40;48.10;;;;;;5047313;28;20192;-61
2024/01/21 03:28:05;;;;;;;11.20;7.00;;;1.40;99.90;;;;;;5042405;28;20229;-61
2024/01/21 03:30:36;;;;;;;11.03;6.17;;;1.40;1.00;;;;;;5047303;28;20234;-61
2024/01/21 03:33:06;;;;;;;9.47;6.63;;;1.40;1.00;;;;;;5044247;28;20668;-61
2024/01/21 03:35:34;;;;;;;8.47;5.90;;;1.50;1.00;;;;;;5045245;28;20225;-61
2024/01/21 03:38:03;;;;;;;8.97;6.50;;;1.50;1.00;;;;;;5045055;28;20523;-61
2024/01/21 03:40:31;;;;;;;8.77;6.73;;;1.50;50.00;;;;;;5047110;28;20181;-61
2024/01/21 03:42:59;;;;;;;12.20;6.10;;;1.50;47.30;;;;;;5045753;28;20216;-61
2024/01/21 03:45:28;;;;;;;9.37;6.27;;;1.40;10.40;;;;;;5045443;28;20213;-61
2024/01/21 03:47:56;;;;;;;11.80;6.83;;;1.40;37.60;;;;;;5042831;28;20212;-61
2024/01/21 03:50:26;;;;;;;10.17;6.40;;;1.40;55.90;;;;;;5045945;28;20235;-61
2024/01/21 03:52:54;;;;;;;8.60;6.37;;;1.40;96.90;;;;;;5044722;28;20217;-61
2024/01/21 03:55:22;;;;;;;13.53;6.57;;;1.40;17.40;;;;;;5042178;28;20224;-62
2024/01/21 03:57:50;;;;;;;9.47;6.63;;;1.40;96.70;;;;;;5041159;28;20228;-61
2024/01/21 04:00:19;;;;;;;9.77;6.27;;;1.40;99.90;;;;;;5042661;28;20224;-61
2024/01/21 04:02:47;;;;;;;9.20;6.43;;;1.40;99.90;;;;;;5044354;28;20225;-61
2024/01/21 04:05:16;;;;;;;11.43;6.70;;;1.40;99.90;;;;;;5065169;28;20199;-61
2024/01/21 04:07:46;;;;;;;8.27;6.30;;;1.40;99.90;;;;;;5047694;28;20220;-61
2024/01/21 04:10:14;;;;;;;8.00;6.33;;;1.40;99.90;;;;;;5043822;28;20217;-61
2024/01/21 04:12:42;;;;;;;9.50;6.30;;;1.40;99.90;;;;;;5044892;28;20228;-61
2024/01/21 04:15:10;;;;;;;8.17;6.73;;;1.30;99.90;;;;;;5042050;28;20213;-62
2024/01/21 04:17:39;;;;;;;9.73;6.50;;;1.30;99.90;;;;;;5045951;28;20715;-61
2024/01/21 04:20:08;;;;;;;8.80;6.33;;;1.30;99.90;;;;;;5050532;28;20193;-61
2024/01/21 04:22:37;;;;;;;9.43;6.03;;;1.30;99.90;;;;;;5043740;28;20199;-61
2024/01/21 04:25:07;;;;;;;9.17;6.40;;;1.30;99.90;;;;;;5048751;28;20694;-61
2024/01/21 04:27:35;;;;;;;9.80;6.80;;;1.30;99.90;;;;;;5044341;28;20228;-61
2024/01/21 04:30:04;;;;;;;9.13;6.70;;;1.30;1.00;;;;;;5041306;28;20235;-60
2024/01/21 04:32:32;;;;;;;10.07;6.50;;;1.20;99.90;;;;;;5041803;28;20591;-61
2024/01/21 04:35:01;;;;;;;7.57;5.80;;;1.30;99.90;;;;;;5043672;28;20258;-61
2024/01/21 04:37:29;;;;;;;8.30;6.30;;;1.30;99.90;;;;;;5045355;28;20267;-61
2024/01/21 04:39:57;;;;;;;13.50;7.30;;;1.20;1.00;;;;;;5046508;28;20685;-61
2024/01/21 04:42:28;;;;;;;9.27;6.63;;;1.20;1.00;;;;;;5043072;28;20625;-61
2024/01/21 04:44:56;;;;;;;9.80;6.63;;;1.20;1.00;;;;;;5040582;28;20247;-61
2024/01/21 04:47:24;;;;;;;9.80;6.30;;;1.20;99.90;;;;;;5041375;28;20225;-62
2024/01/21 04:49:52;;;;;;;8.30;6.23;;;1.20;1.00;;;;;;5043192;28;20299;-61
2024/01/21 04:52:21;;;;;;;9.03;6.30;;;1.20;99.90;;;;;;5040788;28;20233;-61
2024/01/21 04:54:50;;;;;;;10.97;6.57;;;1.30;99.90;;;;;;5059272;28;20217;-61
2024/01/21 04:57:18;;;;;;;9.30;6.80;;;1.30;99.90;;;;;;5040001;28;20221;-61
2024/01/21 04:59:47;;;;;;;10.87;7.03;;;1.30;99.90;;;;;;5044639;28;20960;-61
2024/01/21 05:02:16;;;;;;;10.07;6.77;;;1.30;99.90;;;;;;5044712;28;20195;-61
2024/01/21 05:04:44;;;;;;;10.57;6.97;;;1.30;99.90;;;;;;5042583;28;20296;-61
2024/01/21 05:07:12;;;;;;;9.13;6.73;;;1.30;99.90;;;;;;5045769;28;20213;-62
2024/01/21 05:09:40;;;;;;;10.07;6.23;;;1.30;99.90;;;;;;5045470;28;20229;-62
2024/01/21 05:12:12;;;;;;;11.13;6.87;;;1.30;99.90;;;;;;5043499;28;20217;-61
2024/01/21 05:14:40;;;;;;;8.77;6.70;;;1.30;99.90;;;;;;5047455;28;20756;-61
2024/01/21 05:17:13;;;;;;;10.63;6.70;;;1.30;99.90;;;;;;5044601;28;20590;-61
2024/01/21 05:19:41;;;;;;;10.33;7.30;;;1.30;99.90;;;;;;5039985;28;20200;-61
2024/01/21 05:22:09;;;;;;;9.70;6.90;;;1.30;99.90;;;;;;5045334;28;20266;-61
2024/01/21 05:24:40;;;;;;;9.53;6.80;;;1.30;99.90;;;;;;5046144;28;20227;-61
2024/01/21 05:27:11;;;;;;;9.83;6.57;;;1.30;99.90;;;;;;5047671;28;20224;-61
2024/01/21 05:29:42;;;;;;;10.23;6.50;;;1.30;99.90;;;;;;5042771;28;20303;-61
2024/01/21 05:32:12;;;;;;;8.23;6.13;;;1.40;99.90;;;;;;5041327;28;20204;-62
2024/01/21 05:34:41;;;;;;;8.30;6.37;;;1.30;99.90;;;;;;5045934;28;20201;-61
2024/01/21 05:37:09;;;;;;;11.50;7.30;;;1.40;99.90;;;;;;5043103;28;20224;-62
2024/01/21 05:39:37;;;;;;;8.93;6.27;;;1.40;99.90;;;;;;5040172;28;20405;-61
2024/01/21 05:42:08;;;;;;;15.00;6.07;;;1.50;99.90;;;;;;5040577;28;20217;-61
2024/01/21 05:44:36;;;;;;;10.80;6.23;;;1.50;99.90;;;;;;5043747;28;20221;-61
2024/01/21 05:47:05;;;;;;;10.70;6.30;;;1.50;99.90;;;;;;5041717;28;20193;-61
2024/01/21 05:49:36;;;;;;;9.17;6.63;;;1.50;99.90;;;;;;5036665;28;20206;-62
2024/01/21 05:52:05;;;;;;;9.37;6.40;;;1.50;99.90;;;;;;5041196;28;20236;-62
2024/01/21 05:54:33;;;;;;;8.90;6.43;;;1.50;99.90;;;;;;5043463;28;20590;-61
2024/01/21 05:57:01;;;;;;;10.53;6.77;;;1.50;99.90;;;;;;5043482;28;20687;-61
2024/01/21 05:59:30;;;;;;;8.10;6.00;;;1.50;99.90;;;;;;5042724;28;20224;-61
2024/01/21 06:01:58;;;;;;;7.37;6.10;;;1.50;99.90;;;;;;5045955;28;20407;-62
2024/01/21 06:04:26;;;;;;;8.40;6.40;;;1.60;99.90;;;;;;5046320;28;20216;-62
2024/01/21 06:06:58;;;;;;;10.40;6.80;;;1.60;99.90;;;;;;5043704;28;20217;-61
2024/01/21 06:09:26;;;;;;;9.57;6.10;;;1.70;99.90;;;;;;5043900;28;20247;-61
2024/01/21 06:11:54;;;;;;;9.57;6.10;;;1.70;24.80;;;;;;5047228;28;20279;-62
2024/01/21 06:14:21;;;;;;;8.20;6.40;;;1.70;1.00;;;;;;5041152;28;20196;-61
2024/01/21 06:16:49;;;;;;;8.63;6.10;;;1.80;1.00;;;;;;5043831;28;20295;-61
2024/01/21 06:19:18;;;;;;;10.37;6.57;;;1.80;28.90;;;;;;5046752;28;20227;-61
2024/01/21 06:21:47;;;;;;;8.63;6.50;;;1.80;81.40;;;;;;5049791;28;20328;-62
2024/01/21 06:24:17;;;;;;;8.50;6.60;;;1.80;91.60;;;;;;5049973;28;20270;-61
2024/01/21 06:26:45;;;;;;;12.33;6.50;;;1.80;99.00;;;;;;5048245;28;20267;-61
2024/01/21 06:29:14;;;;;;;8.60;6.47;;;1.80;99.90;;;;;;5049943;28;20189;-61
2024/01/21 06:31:42;;;;;;;7.73;6.17;;;1.80;99.90;;;;;;5048279;28;20213;-61
2024/01/21 06:34:10;;;;;;;8.20;6.03;;;1.90;99.90;;;;;;5048978;28;20216;-62
2024/01/21 06:36:39;;;;;;;9.33;6.93;;;1.80;99.90;;;;;;5049718;28;20236;-63
2024/01/21 06:39:10;;;;;;;10.47;6.93;;;1.80;99.90;;;;;;5046659;28;20263;-62
2024/01/21 06:41:40;;;;;;;8.30;6.27;;;1.80;99.90;;;;;;5043274;28;20298;-61
2024/01/21 06:44:11;;;;;;;8.97;6.70;;;1.80;99.90;;;;;;5044111;28;20190;-61
2024/01/21 06:46:39;;;;;;;9.60;6.67;;;1.90;99.90;;;;;;5042513;28;20212;-61
2024/01/21 06:49:10;;;;;;;9.53;5.80;;;1.90;99.90;;;;;;5049958;28;20217;-61
2024/01/21 06:51:46;;;;;;;13.47;6.50;;;1.90;99.90;;;;;;5048559;28;20591;-61
2024/01/21 06:54:15;;;;;;;9.07;7.13;;;1.80;1.00;;;;;;5041368;28;20224;-61
2024/01/21 06:56:45;;;;;;;9.67;6.30;;;1.80;1.00;;;;;;5048567;28;20224;-61
2024/01/21 06:59:13;;;;;;;9.20;6.60;;;1.70;1.00;;;;;;5046171;28;20216;-62
2024/01/21 07:01:41;;;;;;;7.90;6.70;;;1.70;1.00;;;;;;5048670;28;20650;-61
2024/01/21 07:04:10;;;;;;;13.67;7.80;;;1.70;1.00;;;;;;5046042;28;20224;-61
2024/01/21 07:06:39;;;;;;;11.17;6.37;;;1.70;1.00;;;;;;5048073;28;20220;-61
2024/01/21 07:09:10;;;;;;;12.50;7.43;;;1.70;1.00;;;;;;5044746;28;20217;-62
2024/01/21 07:11:41;;;;;;;16.43;8.23;;;1.70;1.00;;;;;;5050077;28;20256;-61
2024/01/21 07:14:11;;;;;;;10.13;7.67;;;1.80;1.00;;;;;;5043950;28;20199;-61
2024/01/21 07:16:39;;;;;;;9.17;7.10;;;1.80;1.00;;;;;;5049293;28;20193;-62
2024/01/21 07:19:08;;;;;;;10.93;7.47;;;1.80;1.00;;;;;;5043401;28;20213;-62
2024/01/21 07:21:36;;;;;;;8.23;7.00;;;1.80;1.00;;;;;;5044935;28;20236;-61
2024/01/21 07:24:05;;;;;;;11.10;7.17;;;1.80;1.00;;;;;;5045139;28;20212;-61
2024/01/21 07:26:33;;;;;;;11.70;7.60;;;1.80;1.00;;;;;;5050715;28;20232;-62
2024/01/21 07:29:01;;;;;;;10.80;7.33;;;1.80;1.00;;;;;;5048687;28;20689;-61
2024/01/21 07:31:31;;;;;;;10.33;7.10;;;1.80;1.00;;;;;;5047794;28;20243;-61
2024/01/21 07:33:59;;;;;;;10.83;7.70;;;1.80;1.00;;;;;;5043747;28;20311;-61
2024/01/21 07:36:29;;;;;;;10.70;7.40;;;1.80;1.00;;;;;;5048112;28;20317;-61
2024/01/21 07:38:57;;;;;;;13.90;7.90;;;1.80;1.00;;;;;;5049350;28;20270;-62
2024/01/21 07:41:25;;;;;;;12.63;7.60;;;1.80;1.00;;;;;;5046078;28;20235;-62
2024/01/21 07:43:53;;;;;;;12.90;8.00;;;1.70;1.00;;;;;;5046957;28;20191;-61
2024/01/21 07:46:21;;;;;;;13.33;8.10;;;1.70;10.70;;;;;;5044004;28;20243;-62
2024/01/21 07:48:51;;;;;;;12.23;7.80;;;1.80;21.20;;;;;;5046078;28;20251;-62
2024/01/21 07:51:20;;;;;;;10.30;6.97;;;1.70;38.80;;;;;;5045833;28;20245;-61
2024/01/21 07:53:48;;;;;;;13.30;7.87;;;1.70;49.90;;;;;;5043081;28;20869;-61
2024/01/21 07:56:16;;;;;;;12.93;7.90;;;1.70;67.10;;;;;;5047578;28;20636;-61
2024/01/21 07:58:44;;;;;;;11.57;7.73;;;1.70;79.30;;;;;;5041875;28;20198;-61
2024/01/21 08:01:13;;;;;;;13.23;8.03;;;1.70;92.80;;;;;;5045190;28;20308;-61
2024/01/21 08:03:41;;;;;;;12.83;7.57;;;1.70;97.90;;;;;;5041308;28;20453;-62
2024/01/21 08:06:11;;;;;;;10.73;7.90;;;1.70;99.90;;;;;;5048536;28;20772;-62
2024/01/21 08:08:39;;;;;;;16.17;8.97;;;1.80;99.90;;;;;;5044356;28;20228;-62
2024/01/21 08:11:08;;;;;;;13.57;8.43;;;1.70;99.90;;;;;;5047468;28;20219;-61
2024/01/21 08:13:36;;;;;;;13.67;8.93;;;1.80;99.90;;;;;;5045777;28;20197;-61
2024/01/21 08:16:05;;;;;;;13.47;8.63;;;1.80;99.90;;;;;;5046692;28;20306;-62
2024/01/21 08:18:35;;;;;;;17.30;9.57;;;1.90;99.90;;;;;;5045934;28;20214;-62
2024/01/21 08:21:06;;;;;;;16.93;10.90;;;1.90;99.90;;;;;;5044456;28;20212;-61
2024/01/21 08:23:35;;;;;;;19.67;10.53;;;1.90;99.90;;;;;;5038444;28;20232;-61
2024/01/21 08:26:05;;;;;;;15.07;8.00;;;2.00;99.90;;;;;;5042007;28;20194;-61
2024/01/21 08:28:35;;;;;;;11.93;8.17;;;2.10;99.90;;;;;;5042487;28;20232;-62
2024/01/21 08:31:03;;;;;;;14.73;9.73;;;2.10;99.90;;;;;;5044613;28;20216;-62
2024/01/21 08:33:35;;;;;;;11.90;7.70;;;2.10;99.90;;;;;;5040235;28;20228;-61
2024/01/21 08:36:04;;;;;;;11.63;8.27;;;2.10;99.90;;;;;;5045908;28;20216;-61
2024/01/21 08:38:32;;;;;;;16.43;8.23;;;2.10;99.90;;;;;;5046107;28;20683;-61
2024/01/21 08:41:02;;;;;;;11.93;8.10;;;2.20;99.90;;;;;;5043869;28;20227;-62
2024/01/21 08:43:30;;;;;;;10.93;8.07;;;2.20;98.50;;;;;;5043311;28;20303;-62
2024/01/21 08:45:59;;;;;;;9.10;7.27;;;2.20;97.10;;;;;;5043376;28;20231;-62
2024/01/21 08:48:27;;;;;;;11.73;7.67;;;2.30;95.50;;;;;;5044388;28;20260;-62
2024/01/21 08:50:56;;;;;;;10.77;7.33;;;2.30;92.30;;;;;;5042546;28;20253;-62
2024/01/21 08:53:25;;;;;;;12.33;7.80;;;2.40;90.90;;;;;;5044585;28;20229;-62
2024/01/21 08:55:53;;;;;;;13.03;8.07;;;2.40;86.50;;;;;;5045420;28;20189;-62
2024/01/21 08:58:23;;;;;;;13.93;7.83;;;2.50;76.50;;;;;;5042008;28;20216;-61
2024/01/21 09:00:55;;;;;;;10.97;7.33;;;2.60;69.50;;;;;;5043818;28;20244;-61
2024/01/21 09:03:25;;;;;;;12.83;7.77;;;2.60;59.80;;;;;;5042551;28;20930;-61
2024/01/21 09:05:55;;;;;;;14.27;7.70;;;2.70;53.50;;;;;;5044727;28;20228;-61
2024/01/21 09:08:24;;;;;;;11.50;8.03;;;2.70;48.40;;;;;;5043291;28;20236;-62
2024/01/21 09:10:53;;;;;;;9.93;7.17;;;2.80;50.10;;;;;;5044584;28;20223;-62
2024/01/21 09:13:22;;;;;;;11.07;7.27;;;2.80;51.10;;;;;;5045860;28;20228;-61
2024/01/21 09:15:51;;;;;;;12.83;7.57;;;2.80;49.10;;;;;;5045532;28;20220;-61
2024/01/21 09:18:19;;;;;;;8.77;6.90;;;2.90;39.50;;;;;;5047259;28;20236;-61
2024/01/21 09:20:47;;;;;;;10.77;7.17;;;2.90;41.90;;;;;;5045608;28;20227;-61
2024/01/21 09:23:16;;;;;;;12.37;8.17;;;3.00;60.90;;;;;;5048721;28;20188;-62
2024/01/21 09:25:44;;;;;;;11.53;7.40;;;3.00;63.50;;;;;;5042459;28;20205;-62
2024/01/21 09:28:13;;;;;;;12.77;8.00;;;3.10;64.80;;;;;;5040445;28;20240;-61
2024/01/21 09:30:42;;;;;;;10.00;7.27;;;3.10;54.80;;;;;;5046950;28;20339;-62
2024/01/21 09:33:11;;;;;;;13.17;7.37;;;3.20;52.00;;;;;;5048864;28;20227;-61
2024/01/21 09:35:39;;;;;;;11.27;7.00;;;3.20;45.60;;;;;;5047036;28;20217;-61
2024/01/21 09:38:08;;;;;;;9.37;7.00;;;3.20;40.20;;;;;;5042231;28;20248;-61
2024/01/21 09:40:36;;;;;;;12.03;7.53;;;3.20;42.90;;;;;;5045991;28;20193;-61
2024/01/21 09:43:07;;;;;;;9.17;6.83;;;3.20;43.50;;;;;;5043443;28;20216;-62
2024/01/21 09:45:41;;;;;;;10.80;6.90;;;3.30;44.10;;;;;;5047870;28;20603;-61
2024/01/21 09:48:12;;;;;;;9.40;7.37;;;3.40;36.80;;;;;;5041272;28;20216;-62
2024/01/21 09:50:41;;;;;;;11.70;7.27;;;3.40;37.60;;;;;;5045611;28;20688;-62
2024/01/21 09:53:10;;;;;;;8.50;6.47;;;3.50;38.40;;;;;;5044106;28;20211;-61
2024/01/21 09:55:38;;;;;;;10.07;7.03;;;3.60;35.30;;;;;;5042851;28;20212;-62
2024/01/21 09:58:10;;;;;;;10.27;6.67;;;3.70;37.30;;;;;;5051355;28;20227;-61
2024/01/21 10:00:39;;;;;;;10.83;7.27;;;3.70;44.10;;;;;;5047577;28;20571;-62
2024/01/21 10:03:07;;;;;;;8.00;6.70;;;3.70;42.90;;;;;;5053213;28;20213;-61
2024/01/21 10:05:37;;;;;;;10.00;6.80;;;3.80;45.40;;;;;;5047323;28;20320;-62
2024/01/21 10:08:06;;;;;;;9.17;6.80;;;3.80;46.70;;;;;;5043439;28;20198;-61
2024/01/21 10:10:35;;;;;;;9.67;6.87;;;3.80;48.70;;;;;;5049155;28;20185;-62
2024/01/21 10:13:05;;;;;;;8.70;6.67;;;3.90;49.40;;;;;;5045980;28;20213;-61
2024/01/21 10:15:34;;;;;;;9.50;6.87;;;3.90;48.20;;;;;;5051339;28;20216;-61
2024/01/21 10:18:03;;;;;;;11.87;6.57;;;3.90;51.00;;;;;;5045754;28;20738;-62
2024/01/21 10:20:31;;;;;;;13.73;7.50;;;4.10;45.90;;;;;;5049978;28;20221;-62
2024/01/21 10:23:10;;;;;;;7.27;6.30;;;4.10;40.60;;;;;;5045434;28;20185;-61
2024/01/21 10:25:43;;;;;;;8.57;6.77;;;4.20;38.20;;;;;;5042812;28;20714;-61
2024/01/21 10:28:12;;;;;;;13.13;7.30;;;4.20;36.80;;;;;;5048982;28;20601;-62
2024/01/21 10:30:42;;;;;;;11.07;6.67;;;4.30;31.20;;;;;;5045473;28;20221;-62
2024/01/21 10:33:10;;;;;;;15.33;7.37;;;4.30;28.10;;;;;;5048654;28;20232;-61
2024/01/21 10:35:39;;;;;;;11.43;6.97;;;4.40;29.30;;;;;;5049080;28;20225;-61
2024/01/21 10:38:13;;;;;;;9.20;6.40;;;4.30;31.70;;;;;;5047538;28;20212;-62
2024/01/21 10:40:44;;;;;;;9.10;6.40;;;4.40;30.20;;;;;;5048012;28;20205;-62
2024/01/21 10:43:16;;;;;;;8.03;6.43;;;4.30;36.80;;;;;;5045937;28;20214;-61
2024/01/21 10:45:51;;;;;;;9.67;6.77;;;4.30;40.60;;;;;;5041184;28;20216;-61
2024/01/21 10:48:21;;;;;;;9.30;7.20;;;4.30;46.10;;;;;;5046801;28;20307;-61
2024/01/21 10:50:51;;;;;;;9.23;6.70;;;4.30;45.40;;;;;;5049051;28;20216;-62
2024/01/21 10:53:23;;;;;;;8.03;6.57;;;4.30;50.30;;;;;;5049522;28;20227;-62
2024/01/21 10:55:52;;;;;;;10.17;6.77;;;4.30;51.10;;;;;;5050966;28;20607;-62
2024/01/21 10:58:22;;;;;;;11.53;7.30;;;4.30;53.10;;;;;;5048731;28;20220;-62
2024/01/21 11:00:52;;;;;;;9.03;6.53;;;4.30;60.20;;;;;;5049336;28;20598;-62
2024/01/21 11:03:26;;;;;;;10.70;6.47;;;4.30;62.40;;;;;;5047008;28;20321;-62
2024/01/21 11:06:00;;;;;;;10.20;6.60;;;4.30;67.70;;;;;;5047193;28;20656;-62
2024/01/21 11:08:31;;;;;;;7.57;6.30;;;4.30;67.10;;;;;;5048972;28;20220;-62
2024/01/21 11:11:02;;;;;;;8.03;6.80;;;4.30;66.40;;;;;;5049544;28;20207;-63
2024/01/21 11:13:41;;;;;;;9.80;7.00;;;4.40;69.30;;;;;;5050836;28;20592;-63
2024/01/21 11:16:12;;;;;;;10.13;6.87;;;4.30;72.20;;;;;;5045832;28;20220;-62
2024/01/21 11:18:43;;;;;;;12.13;7.30;;;4.40;71.10;;;;;;5044372;28;20240;-62
2024/01/21 11:21:15;;;;;;;8.30;6.63;;;4.30;74.50;;;;;;5045476;28;20218;-62
2024/01/21 11:23:47;;;;;;;8.93;6.93;;;4.30;79.80;;;;;;5046370;28;20307;-62
2024/01/21 11:26:21;;;;;;;10.80;6.80;;;4.30;78.80;;;;;;5046735;28;20203;-62
2024/01/21 11:28:50;;;;;;;8.90;7.07;;;4.40;79.70;;;;;;5047528;28;20551;-62
2024/01/21 11:31:21;;;;;;;7.50;6.20;;;4.50;76.50;;;;;;5044461;28;20312;-62
2024/01/21 11:34:03;;;;;;;9.53;6.77;;;4.50;72.40;;;;;;5044657;28;20228;-62
2024/01/21 11:36:32;;;;;;;12.23;7.10;;;4.50;69.10;;;;;;5045815;28;20213;-62
2024/01/21 11:39:02;;;;;;;8.40;6.90;;;4.60;74.60;;;;;;5046694;28;20217;-62
2024/01/21 11:41:39;;;;;;;8.30;6.80;;;4.60;70.70;;;;;;5043737;28;20264;-62
2024/01/21 11:44:12;;;;;;;12.63;6.63;;;4.70;72.30;;;;;;5043827;28;20704;-62
2024/01/21 11:46:44;;;;;;;9.33;6.47;;;4.80;63.60;;;;;;5043355;28;20216;-63
2024/01/21 11:49:13;;;;;;;13.13;7.70;;;4.90;56.00;;;;;;5040786;28;20221;-62
2024/01/21 11:51:41;;;;;;;10.43;7.03;;;4.90;56.00;;;;;;5042095;28;20579;-62
2024/01/21 11:54:11;;;;;;;9.83;6.77;;;4.90;56.90;;;;;;5044989;28;20229;-62
2024/01/21 11:56:40;;;;;;;8.40;6.67;;;4.90;62.60;;;;;;5045510;28;20311;-62
2024/01/21 11:59:19;;;;;;;10.57;6.77;;;4.80;67.90;;;;;;5045819;28;20182;-62
2024/01/21 12:01:48;;;;;;;8.93;6.53;;;4.80;69.40;;;;;;5045386;28;20192;-62
2024/01/21 12:04:16;;;;;;;8.33;6.40;;;4.70;74.40;;;;;;5045524;28;20212;-63
2024/01/21 12:06:47;;;;;;;9.43;7.00;;;4.70;78.10;;;;;;5043835;28;20212;-62
2024/01/21 12:09:17;;;;;;;10.27;7.00;;;4.60;84.50;;;;;;5045730;28;20312;-62
2024/01/21 12:11:49;;;;;;;7.57;6.23;;;4.60;88.10;;;;;;5049444;28;20271;-62
2024/01/21 12:14:18;;;;;;;7.43;6.30;;;4.60;90.40;;;;;;5041171;28;20723;-62
2024/01/21 12:16:51;;;;;;;8.97;6.70;;;4.60;90.70;;;;;;5047055;28;20184;-62
2024/01/21 12:19:19;;;;;;;10.70;6.90;;;4.70;91.60;;;;;;5045530;28;20204;-62
2024/01/21 12:21:48;;;;;;;8.47;6.33;;;4.70;90.70;;;;;;5041245;28;20316;-62
2024/01/21 12:24:22;;;;;;;8.33;6.83;;;4.70;93.10;;;;;;5044427;28;20220;-62
2024/01/21 12:26:51;;;;;;;8.20;6.10;;;4.80;90.90;;;;;;5042724;28;20698;-62
2024/01/21 12:29:20;;;;;;;8.60;6.73;;;4.80;91.00;;;;;;5042556;28;20242;-63
2024/01/21 12:31:48;;;;;;;7.37;6.20;;;4.90;90.30;;;;;;5046490;28;20193;-62
2024/01/21 12:34:18;;;;;;;10.33;6.63;;;5.00;87.50;;;;;;5045861;28;20220;-62
2024/01/21 12:36:49;;;;;;;9.07;6.80;;;4.90;85.50;;;;;;5043886;28;20266;-63
2024/01/21 12:39:21;;;;;;;9.27;7.40;;;4.90;88.10;;;;;;5047312;28;20216;-62
2024/01/21 12:41:50;;;;;;;9.87;6.97;;;4.90;91.50;;;;;;5041259;28;20244;-62
2024/01/21 12:44:18;;;;;;;37.70;13.13;;;4.90;91.60;;;;;;5045334;28;20219;-62
2024/01/21 12:46:47;;;;;;;16.97;9.43;;;4.90;92.60;;;;;;5045587;28;20189;-62
2024/01/21 12:49:16;;;;;;;10.90;7.37;;;4.90;92.20;;;;;;5045825;28;20287;-63
2024/01/21 12:51:45;;;;;;;12.10;8.17;;;4.90;93.20;;;;;;5044419;28;20221;-62
2024/01/21 12:54:14;;;;;;;10.90;7.70;;;4.90;92.60;;;;;;5042824;28;20251;-62
2024/01/21 12:56:43;;;;;;;11.00;8.03;;;4.90;95.10;;;;;;5040415;28;20220;-63
2024/01/21 12:59:13;;;;;;;13.00;8.63;;;4.90;97.00;;;;;;5044970;28;20569;-63
2024/01/21 13:01:42;;;;;;;9.90;7.70;;;4.90;97.30;;;;;;5044110;28;20757;-62
2024/01/21 13:04:10;;;;;;;8.63;7.30;;;4.90;97.70;;;;;;5043223;28;20829;-63